createdAt,value
2023-02-06T00:01:52.642Z,46.77
2023-02-06T00:04:21.903Z,42.43
2023-02-06T00:06:51.157Z,45.10
2023-02-06T00:09:20.359Z,42.03
2023-02-06T00:11:49.623Z,44.10
2023-02-06T00:14:18.865Z,33.75
2023-02-06T00:16:48.333Z,49.73
2023-02-06T00:19:17.551Z,37.38
2023-02-06T00:21:47.179Z,47.93
2023-02-06T00:24:16.718Z,44.00
2023-02-06T00:26:46.205Z,48.05
2023-02-06T00:29:15.437Z,36.93
2023-02-06T00:31:44.744Z,49.00
2023-02-06T00:34:14.836Z,44.30
2023-02-06T00:36:44.251Z,49.65
2023-02-06T00:39:13.652Z,49.23
2023-02-06T00:41:42.968Z,46.35
2023-02-06T00:44:12.924Z,47.60
2023-02-06T00:46:42.524Z,46.98
2023-02-06T00:49:11.738Z,37.85
2023-02-06T00:51:41.393Z,32.85
2023-02-06T00:54:11.087Z,37.05
2023-02-06T00:56:40.476Z,37.00
2023-02-06T00:59:09.767Z,44.53
2023-02-06T01:01:40.749Z,39.85
2023-02-06T01:04:10.016Z,56.63
2023-02-06T01:06:39.801Z,41.30
2023-02-06T01:09:09.067Z,37.85
2023-02-06T01:11:38.540Z,35.05
2023-02-06T01:14:07.764Z,36.95
2023-02-06T01:16:37.726Z,47.98
2023-02-06T01:19:06.985Z,34.88
2023-02-06T01:21:37.207Z,36.40
2023-02-06T01:24:06.999Z,40.75
2023-02-06T01:26:36.408Z,37.55
2023-02-06T01:29:06.073Z,35.92
2023-02-06T01:31:35.974Z,30.55
2023-02-06T01:34:07.647Z,38.78
2023-02-06T01:36:37.789Z,44.73
2023-02-06T01:39:07.965Z,36.60
2023-02-06T01:41:37.283Z,44.60
2023-02-06T01:44:18.382Z,43.83
2023-02-06T01:46:52.479Z,37.53
2023-02-06T01:49:36.711Z,39.18
2023-02-06T01:52:18.489Z,40.65
2023-02-06T01:54:50.162Z,34.90
2023-02-06T01:57:20.416Z,41.42
2023-02-06T01:59:53.464Z,31.68
2023-02-06T02:02:24.288Z,35.05
2023-02-06T02:04:55.768Z,36.00
2023-02-06T02:07:28.763Z,34.08
2023-02-06T02:09:59.127Z,33.92
2023-02-06T02:12:29.696Z,41.65
2023-02-06T02:14:59.489Z,33.83
2023-02-06T02:17:38.065Z,35.52
2023-02-06T02:20:40.696Z,40.92
2023-02-06T02:23:32.068Z,44.33
2023-02-06T02:26:13.087Z,36.70
2023-02-06T02:29:05.966Z,36.48
2023-02-06T02:34:36.725Z,33.70
2023-02-06T02:37:30.405Z,41.53
2023-02-06T02:40:21.864Z,31.37
2023-02-06T02:42:59.913Z,42.70
2023-02-06T02:45:39.468Z,39.00
2023-02-06T02:48:11.930Z,30.82
2023-02-06T02:50:42.134Z,32.58
2023-02-06T02:53:14.934Z,37.98
2023-02-06T02:55:44.385Z,39.48
2023-02-06T02:58:16.453Z,24.63
2023-02-06T03:00:49.455Z,30.25
2023-02-06T03:03:22.265Z,27.27
2023-02-06T03:05:54.824Z,35.95
2023-02-06T03:08:30.361Z,32.50
2023-02-06T03:11:14.126Z,35.50
2023-02-06T03:13:58.474Z,38.48
2023-02-06T03:16:33.651Z,30.12
2023-02-06T03:19:06.352Z,29.45
2023-02-06T03:21:37.156Z,33.75
2023-02-06T03:24:18.848Z,34.75
2023-02-06T03:26:49.810Z,33.20
2023-02-06T03:29:20.422Z,41.18
2023-02-06T03:31:55.166Z,33.70
2023-02-06T03:34:45.156Z,30.37
2023-02-06T03:37:14.655Z,25.30
2023-02-06T03:39:44.661Z,30.00
2023-02-06T03:42:15.558Z,30.62
2023-02-06T03:44:48.157Z,31.48
2023-02-06T03:47:19.157Z,41.00
2023-02-06T03:49:49.322Z,31.45
2023-02-06T03:52:21.888Z,38.13
2023-02-06T03:54:54.545Z,24.47
2023-02-06T03:57:25.073Z,30.02
2023-02-06T03:59:54.549Z,34.70
2023-02-06T04:02:25.846Z,23.07
2023-02-06T04:04:55.414Z,32.95
2023-02-06T04:07:29.559Z,27.32
2023-02-06T04:09:59.453Z,23.80
2023-02-06T04:12:28.759Z,35.52
2023-02-06T04:14:58.020Z,30.08
2023-02-06T04:17:43.151Z,44.00
2023-02-06T04:19:59.170Z,42.45
2023-02-06T04:22:28.412Z,37.90
2023-02-06T04:24:57.834Z,34.75
2023-02-06T04:27:27.226Z,45.10
2023-02-06T04:29:56.879Z,40.52
2023-02-06T04:32:26.480Z,37.95
2023-02-06T04:34:55.701Z,38.63
2023-02-06T04:37:25.005Z,41.40
2023-02-06T04:39:54.577Z,41.45
2023-02-06T04:42:23.799Z,49.42
2023-02-06T04:44:53.138Z,32.05
2023-02-06T04:47:22.371Z,33.00
2023-02-06T04:49:51.624Z,38.92
2023-02-06T04:52:20.842Z,34.88
2023-02-06T04:54:50.274Z,26.93
2023-02-06T04:57:19.764Z,43.15
2023-02-06T04:59:49.243Z,34.67
2023-02-06T05:02:18.520Z,45.08
2023-02-06T05:04:47.788Z,35.03
2023-02-06T05:07:16.995Z,40.20
2023-02-06T05:09:46.597Z,45.70
2023-02-06T05:12:15.864Z,42.58
2023-02-06T05:14:45.100Z,39.18
2023-02-06T05:17:14.404Z,44.25
2023-02-06T05:19:43.927Z,53.68
2023-02-06T05:22:13.312Z,44.33
2023-02-06T05:24:42.557Z,55.60
2023-02-06T05:27:11.891Z,42.40
2023-02-06T05:29:41.838Z,42.93
2023-02-06T05:32:11.594Z,50.45
2023-02-06T05:34:41.262Z,33.75
2023-02-06T05:37:10.829Z,32.85
2023-02-06T05:39:40.411Z,43.13
2023-02-06T05:42:10.082Z,41.20
2023-02-06T05:44:39.789Z,37.00
2023-02-06T05:47:09.091Z,51.08
2023-02-06T05:49:38.334Z,49.40
2023-02-06T05:52:07.684Z,40.80
2023-02-06T05:54:37.330Z,45.03
2023-02-06T05:57:06.906Z,37.15
2023-02-06T05:59:36.413Z,46.20
2023-02-06T06:02:05.953Z,40.00
2023-02-06T06:04:35.281Z,46.15
2023-02-06T06:07:04.877Z,59.55
2023-02-06T06:09:34.100Z,44.20
2023-02-06T06:12:03.335Z,48.73
2023-02-06T06:14:32.704Z,50.95
2023-02-06T06:17:02.298Z,46.40
2023-02-06T06:19:31.598Z,52.05
2023-02-06T06:22:01.040Z,44.18
2023-02-06T06:24:30.297Z,46.33
2023-02-06T06:27:00.111Z,40.88
2023-02-06T06:29:29.634Z,40.35
2023-02-06T06:31:59.307Z,35.60
2023-02-06T06:34:28.728Z,42.50
2023-02-06T06:36:58.007Z,49.38
2023-02-06T06:39:27.299Z,52.08
2023-02-06T06:41:56.638Z,52.83
2023-02-06T06:44:26.268Z,50.35
2023-02-06T06:46:55.755Z,43.00
2023-02-06T06:49:25.248Z,35.15
2023-02-06T06:51:54.541Z,103.53
2023-02-06T06:54:24.492Z,107.43
2023-02-06T06:56:54.165Z,56.35
2023-02-06T06:59:23.399Z,45.43
2023-02-06T07:01:52.654Z,39.05
2023-02-06T07:04:23.041Z,40.92
2023-02-06T07:06:52.289Z,47.75
2023-02-06T07:09:21.593Z,35.65
2023-02-06T07:11:50.894Z,215.90
2023-02-06T07:14:20.368Z,84.77
2023-02-06T07:16:49.906Z,39.08
2023-02-06T07:19:19.555Z,36.68
2023-02-06T07:21:49.143Z,40.48
2023-02-06T07:24:18.451Z,91.40
2023-02-06T07:26:47.683Z,112.45
2023-02-06T07:29:17.271Z,104.05
2023-02-06T07:31:46.889Z,46.00
2023-02-06T07:34:17.086Z,37.55
2023-02-06T07:36:46.540Z,47.17
2023-02-06T07:39:15.805Z,51.45
2023-02-06T07:41:46.590Z,51.35
2023-02-06T07:44:16.610Z,49.75
2023-02-06T07:46:45.908Z,31.85
2023-02-06T07:49:16.469Z,33.83
2023-02-06T07:51:46.950Z,39.98
2023-02-06T07:54:16.790Z,41.23
2023-02-06T07:56:46.557Z,46.33
2023-02-06T07:59:15.838Z,38.73
2023-02-06T08:01:45.508Z,47.65
2023-02-06T08:04:14.794Z,43.33
2023-02-06T08:06:44.885Z,48.13
2023-02-06T08:09:17.784Z,48.38
2023-02-06T08:11:49.176Z,34.05
2023-02-06T08:14:18.979Z,54.75
2023-02-06T08:16:49.956Z,54.85
2023-02-06T08:19:19.660Z,50.05
2023-02-06T08:21:49.213Z,53.25
2023-02-06T08:24:18.602Z,33.50
2023-02-06T08:26:48.381Z,50.48
2023-02-06T08:29:17.776Z,46.13
2023-02-06T08:31:47.227Z,45.60
2023-02-06T08:34:17.115Z,49.38
2023-02-06T08:36:47.052Z,46.35
2023-02-06T08:39:18.150Z,42.43
2023-02-06T08:41:47.679Z,47.95
2023-02-06T08:44:18.536Z,42.62
2023-02-06T08:46:52.310Z,41.63
2023-02-06T08:49:21.636Z,41.90
2023-02-06T08:51:50.988Z,41.30
2023-02-06T08:54:23.327Z,44.33
2023-02-06T08:56:53.459Z,43.42
2023-02-06T08:59:22.881Z,41.70
2023-02-06T09:01:52.355Z,38.80
2023-02-06T09:04:21.992Z,51.37
2023-02-06T09:06:52.386Z,39.58
2023-02-06T09:09:21.684Z,44.13
2023-02-06T09:11:51.117Z,40.48
2023-02-06T09:14:20.905Z,50.92
2023-02-06T09:16:50.230Z,42.20
2023-02-06T09:19:19.665Z,41.80
2023-02-06T09:21:48.867Z,41.18
2023-02-06T09:24:18.242Z,44.23
2023-02-06T09:26:59.521Z,39.63
2023-02-06T09:29:18.653Z,34.30
2023-02-06T09:31:47.955Z,33.92
2023-02-06T09:34:17.844Z,40.38
2023-02-06T09:36:47.178Z,33.65
2023-02-06T09:39:16.464Z,37.08
2023-02-06T09:41:57.750Z,34.60
2023-02-06T09:44:30.178Z,27.75
2023-02-06T09:47:28.086Z,25.50
2023-02-06T09:50:07.388Z,24.77
2023-02-06T09:53:04.322Z,20.80
2023-02-06T09:55:49.073Z,21.42
2023-02-06T09:58:47.509Z,19.73
2023-02-06T10:01:25.897Z,21.42
2023-02-06T10:04:14.386Z,21.90
2023-02-06T10:06:49.417Z,23.00
2023-02-06T10:09:30.970Z,20.90
2023-02-06T10:12:06.425Z,22.67
2023-02-06T10:14:49.956Z,21.85
2023-02-06T10:17:31.911Z,19.67
2023-02-06T10:20:07.286Z,26.30
2023-02-06T10:23:00.594Z,23.75
2023-02-06T10:25:35.723Z,24.72
2023-02-06T10:28:15.273Z,23.77
2023-02-06T10:30:57.327Z,18.27
2023-02-06T10:33:41.522Z,24.37
2023-02-06T10:36:29.562Z,29.95
2023-02-06T10:39:07.906Z,25.25
2023-02-06T10:42:06.354Z,18.23
2023-02-06T10:44:51.712Z,23.30
2023-02-06T10:47:24.463Z,22.52
2023-02-06T10:50:01.256Z,15.45
2023-02-06T10:52:34.263Z,18.55
2023-02-06T10:55:06.637Z,17.75
2023-02-06T10:57:36.295Z,16.37
2023-02-06T11:00:08.099Z,18.67
2023-02-06T11:02:43.859Z,19.90
2023-02-06T11:05:19.382Z,14.33
2023-02-06T11:07:51.358Z,18.30
2023-02-06T11:10:23.599Z,20.10
2023-02-06T11:13:12.597Z,14.60
2023-02-06T11:15:57.465Z,15.95
2023-02-06T11:18:33.045Z,19.70
2023-02-06T11:21:03.565Z,19.02
2023-02-06T11:23:35.349Z,25.43
2023-02-06T11:26:19.129Z,19.73
2023-02-06T11:28:53.883Z,21.07
2023-02-06T11:31:46.114Z,17.70
2023-02-06T11:34:24.349Z,19.12
2023-02-06T11:37:05.723Z,18.07
2023-02-06T11:39:40.056Z,21.87
2023-02-06T11:42:21.409Z,13.88
2023-02-06T11:44:52.339Z,15.28
2023-02-06T11:47:37.923Z,15.93
2023-02-06T11:50:34.886Z,16.00
2023-02-06T11:53:18.860Z,16.30
2023-02-06T11:55:51.511Z,17.85
2023-02-06T11:58:28.554Z,17.57
2023-02-06T12:01:06.652Z,19.27
2023-02-06T12:03:41.737Z,12.70
2023-02-06T12:06:30.780Z,15.05
2023-02-06T12:09:05.803Z,16.50
2023-02-06T12:11:38.240Z,15.90
2023-02-06T12:14:20.064Z,18.32
2023-02-06T12:16:50.673Z,15.03
2023-02-06T12:19:26.211Z,11.75
2023-02-06T12:21:59.099Z,18.20
2023-02-06T12:24:40.212Z,13.43
2023-02-06T12:27:39.622Z,14.60
2023-02-06T12:30:47.192Z,14.63
2023-02-06T12:33:26.652Z,13.43
2023-02-06T12:36:09.735Z,16.00
2023-02-06T12:38:41.953Z,18.55
2023-02-06T12:41:22.713Z,14.80
2023-02-06T12:43:55.359Z,20.62
2023-02-06T12:48:57.207Z,15.18
2023-02-06T12:51:32.836Z,19.75
2023-02-06T12:54:17.209Z,16.93
2023-02-06T12:56:55.650Z,22.13
2023-02-06T12:59:41.686Z,12.98
2023-02-06T13:02:20.952Z,19.35
2023-02-06T13:04:50.772Z,13.87
2023-02-06T13:07:22.602Z,18.25
2023-02-06T13:09:54.510Z,13.95
2023-02-06T13:12:26.625Z,19.52
2023-02-06T13:14:58.513Z,14.85
2023-02-06T13:17:41.848Z,19.12
2023-02-06T13:20:16.063Z,14.90
2023-02-06T13:22:53.853Z,13.98
2023-02-06T13:25:36.515Z,18.82
2023-02-06T13:28:25.987Z,19.95
2023-02-06T13:31:07.813Z,20.97
2023-02-06T13:33:45.633Z,17.77
2023-02-06T13:36:21.425Z,15.20
2023-02-06T13:38:56.026Z,14.28
2023-02-06T13:41:31.248Z,14.05
2023-02-06T13:44:05.271Z,15.03
2023-02-06T13:46:53.241Z,18.67
2023-02-06T13:49:31.454Z,20.25
2023-02-06T13:52:13.010Z,16.95
2023-02-06T13:54:50.921Z,19.75
2023-02-06T13:57:58.371Z,16.82
2023-02-06T14:00:30.293Z,18.12
2023-02-06T14:03:08.955Z,15.38
2023-02-06T14:05:47.749Z,10.82
2023-02-06T14:08:25.999Z,17.50
2023-02-06T14:11:13.832Z,17.27
2023-02-06T14:14:14.759Z,13.03
2023-02-06T14:16:53.168Z,15.08
2023-02-06T14:19:28.463Z,18.20
2023-02-06T14:22:01.028Z,21.87
2023-02-06T14:29:47.448Z,22.35
2023-02-06T14:37:57.601Z,15.03
2023-02-06T14:40:28.953Z,18.75
2023-02-06T14:42:59.747Z,22.45
2023-02-06T14:45:40.940Z,23.38
2023-02-06T14:48:05.242Z,17.10
2023-02-06T14:50:37.623Z,11.85
2023-02-06T14:53:24.817Z,19.35
2023-02-06T14:55:55.030Z,15.25
2023-02-06T14:58:31.896Z,12.45
2023-02-06T15:01:19.194Z,14.60
2023-02-06T15:03:51.864Z,14.65
2023-02-06T15:06:30.512Z,15.40
2023-02-06T15:09:00.502Z,11.97
2023-02-06T15:11:32.842Z,16.20
2023-02-06T15:16:34.320Z,13.68
2023-02-06T15:19:15.971Z,13.43
2023-02-06T15:21:45.244Z,14.38
2023-02-06T15:24:34.503Z,12.58
2023-02-06T15:27:06.872Z,14.78
2023-02-06T15:29:36.220Z,9.05
2023-02-06T15:32:08.248Z,14.07
2023-02-06T15:34:37.883Z,10.85
2023-02-06T15:37:30.556Z,12.53
2023-02-06T15:40:08.867Z,11.68
2023-02-06T15:42:38.466Z,18.07
2023-02-06T15:45:09.132Z,19.62
2023-02-06T15:47:40.458Z,16.90
2023-02-06T15:50:15.872Z,14.18
2023-02-06T15:52:47.030Z,17.27
2023-02-06T15:55:28.544Z,16.65
2023-02-06T15:57:59.432Z,12.68
2023-02-06T16:00:30.954Z,14.78
2023-02-06T16:03:02.882Z,18.55
2023-02-06T16:05:40.712Z,14.03
2023-02-06T16:08:30.294Z,15.80
2023-02-06T16:11:05.421Z,14.00
2023-02-06T16:13:35.227Z,12.43
2023-02-06T16:16:13.991Z,15.93
2023-02-06T16:18:43.266Z,18.52
2023-02-06T16:21:18.444Z,22.50
2023-02-06T16:23:49.932Z,15.95
2023-02-06T16:26:24.486Z,17.67
2023-02-06T16:29:06.317Z,19.52
2023-02-06T16:31:38.925Z,18.20
2023-02-06T16:34:37.159Z,17.50
2023-02-06T16:37:10.619Z,18.70
2023-02-06T16:39:42.397Z,20.48
2023-02-06T16:42:15.027Z,21.82
2023-02-06T16:44:47.284Z,23.22
2023-02-06T16:47:18.696Z,21.93
2023-02-06T16:49:48.857Z,25.83
2023-02-06T16:52:27.238Z,20.65
2023-02-06T16:55:01.143Z,20.17
2023-02-06T16:57:36.716Z,28.23
2023-02-06T17:00:15.115Z,23.40
2023-02-06T17:02:45.096Z,21.48
2023-02-06T17:05:15.368Z,18.98
2023-02-06T17:07:45.286Z,17.77
2023-02-06T17:10:15.307Z,15.60
2023-02-06T17:12:46.982Z,17.80
2023-02-06T17:15:17.865Z,17.37
2023-02-06T17:17:47.560Z,13.58
2023-02-06T17:20:31.868Z,15.20
2023-02-06T17:23:01.454Z,17.95
2023-02-06T17:25:30.769Z,19.82
2023-02-06T17:28:01.183Z,12.53
2023-02-06T17:30:30.860Z,13.62
2023-02-06T17:33:00.195Z,16.70
2023-02-06T17:35:30.656Z,19.35
2023-02-06T17:38:00.726Z,13.45
2023-02-06T17:40:31.966Z,12.47
2023-02-06T17:43:03.946Z,13.55
2023-02-06T17:45:33.967Z,14.68
2023-02-06T17:48:03.439Z,11.28
2023-02-06T17:50:33.274Z,15.53
2023-02-06T17:53:03.925Z,19.05
2023-02-06T17:55:33.691Z,13.18
2023-02-06T17:58:03.343Z,14.07
2023-02-06T18:00:33.067Z,12.65
2023-02-06T18:03:04.684Z,11.12
2023-02-06T18:05:35.025Z,12.70
2023-02-06T18:08:04.550Z,16.57
2023-02-06T18:10:33.826Z,17.57
2023-02-06T18:13:03.606Z,13.08
2023-02-06T18:15:33.173Z,13.15
2023-02-06T18:18:04.457Z,16.82
2023-02-06T18:20:33.852Z,14.18
2023-02-06T18:23:03.396Z,13.60
2023-02-06T18:25:32.718Z,12.85
2023-02-06T18:28:02.249Z,17.02
2023-02-06T18:30:31.571Z,15.43
2023-02-06T18:33:01.108Z,13.08
2023-02-06T18:35:30.769Z,19.23
2023-02-06T18:38:00.353Z,14.80
2023-02-06T18:40:30.117Z,17.73
2023-02-06T18:42:59.445Z,15.10
2023-02-06T18:45:33.046Z,16.20
2023-02-06T18:48:03.895Z,15.83
2023-02-06T18:50:34.020Z,12.58
2023-02-06T18:53:03.340Z,18.80
2023-02-06T18:55:34.773Z,13.58
2023-02-06T18:58:05.024Z,14.50
2023-02-06T19:00:37.449Z,10.35
2023-02-06T19:03:07.508Z,21.77
2023-02-06T19:05:37.984Z,15.60
2023-02-06T19:08:07.478Z,15.53
2023-02-06T19:10:37.354Z,12.60
2023-02-06T19:13:09.071Z,19.52
2023-02-06T19:15:38.470Z,14.50
2023-02-06T19:18:08.939Z,16.37
2023-02-06T19:20:39.860Z,14.35
2023-02-06T19:23:09.543Z,12.95
2023-02-06T19:25:41.420Z,19.32
2023-02-06T19:28:11.212Z,13.72
2023-02-06T19:30:41.154Z,16.85
2023-02-06T19:33:12.096Z,19.40
2023-02-06T19:35:42.264Z,13.80
2023-02-06T19:38:11.891Z,19.67
2023-02-06T19:40:41.136Z,18.25
2023-02-06T19:43:10.695Z,16.30
2023-02-06T19:45:40.015Z,26.07
2023-02-06T19:48:12.130Z,20.97
2023-02-06T19:50:42.484Z,13.88
2023-02-06T19:53:15.567Z,19.77
2023-02-06T19:55:46.554Z,22.97
2023-02-06T20:00:44.424Z,13.72
2023-02-06T20:03:14.407Z,13.88
2023-02-06T20:05:44.446Z,15.93
2023-02-06T20:08:14.011Z,21.40
2023-02-06T20:10:43.266Z,18.27
2023-02-06T20:13:12.832Z,17.73
2023-02-06T20:15:42.147Z,19.35
2023-02-06T20:18:12.597Z,18.55
2023-02-06T20:20:42.022Z,25.55
2023-02-06T20:23:11.474Z,34.48
2023-02-06T20:25:40.837Z,26.70
2023-02-06T20:28:10.187Z,19.92
2023-02-06T20:30:39.985Z,22.35
2023-02-06T20:33:10.051Z,19.82
2023-02-06T20:35:45.794Z,19.05
2023-02-06T20:38:15.297Z,19.12
2023-02-06T20:40:48.206Z,21.23
2023-02-06T20:43:17.701Z,23.95
2023-02-06T20:45:47.245Z,23.20
2023-02-06T20:48:16.609Z,20.92
2023-02-06T20:50:45.915Z,22.98
2023-02-06T20:53:15.291Z,19.85
2023-02-06T20:55:47.579Z,29.32
2023-02-06T20:58:16.816Z,28.40
2023-02-06T21:00:46.423Z,20.25
2023-02-06T21:03:15.646Z,16.85
2023-02-06T21:05:45.807Z,21.52
2023-02-06T21:08:15.073Z,34.00
2023-02-06T21:10:44.570Z,27.48
2023-02-06T21:13:13.806Z,34.23
2023-02-06T21:15:43.485Z,32.67
2023-02-06T21:18:12.809Z,30.40
2023-02-06T21:20:42.262Z,32.58
2023-02-06T21:23:11.645Z,35.73
2023-02-06T21:25:42.966Z,37.48
2023-02-06T21:28:12.320Z,47.27
2023-02-06T21:30:41.978Z,41.28
2023-02-06T21:33:11.375Z,38.75
2023-02-06T21:35:40.916Z,38.05
2023-02-06T21:38:10.400Z,29.55
2023-02-06T21:40:39.831Z,38.70
2023-02-06T21:43:09.392Z,42.53
2023-02-06T21:45:42.024Z,42.03
2023-02-06T21:48:11.963Z,45.88
2023-02-06T21:50:42.541Z,38.67
2023-02-06T21:53:12.031Z,44.50
2023-02-06T21:55:45.219Z,44.40
2023-02-06T21:58:15.132Z,42.75
2023-02-06T22:00:46.226Z,44.58
2023-02-06T22:03:15.980Z,48.63
2023-02-06T22:05:46.460Z,39.78
2023-02-06T22:08:19.184Z,35.68
2023-02-06T22:10:49.185Z,29.67
2023-02-06T22:13:19.330Z,43.60
2023-02-06T22:16:13.071Z,46.77
2023-02-06T22:18:48.495Z,40.50
2023-02-06T22:23:49.338Z,37.70
2023-02-06T22:26:21.301Z,36.73
2023-02-06T22:28:51.741Z,39.90
2023-02-06T22:31:23.668Z,43.42
2023-02-06T22:34:00.378Z,44.55
2023-02-06T22:36:32.780Z,38.17
2023-02-06T22:39:06.647Z,36.28
2023-02-06T22:41:44.342Z,38.63
2023-02-06T22:44:15.849Z,39.88
2023-02-06T22:46:47.545Z,48.50
2023-02-06T22:49:17.718Z,38.30
2023-02-06T22:51:47.393Z,46.23
2023-02-06T22:54:16.991Z,40.73
2023-02-06T22:56:46.289Z,42.58
2023-02-06T22:59:26.325Z,41.28
2023-02-06T23:01:59.134Z,53.83
2023-02-06T23:04:33.011Z,41.98
2023-02-06T23:07:02.590Z,40.05
2023-02-06T23:09:34.654Z,48.35
2023-02-06T23:12:05.120Z,39.45
2023-02-06T23:14:35.484Z,34.90
2023-02-06T23:17:04.894Z,31.85
2023-02-06T23:19:34.733Z,44.30
2023-02-06T23:22:03.995Z,37.55
2023-02-06T23:24:33.297Z,38.33
2023-02-06T23:27:02.630Z,37.78
2023-02-06T23:29:31.908Z,42.35
2023-02-06T23:32:01.320Z,40.48
2023-02-06T23:34:30.612Z,30.45
2023-02-06T23:36:59.911Z,38.25
2023-02-06T23:39:29.154Z,39.13
2023-02-06T23:41:58.609Z,40.28
2023-02-06T23:44:27.930Z,38.13
2023-02-06T23:46:57.342Z,42.23
2023-02-06T23:49:26.565Z,36.15
2023-02-06T23:51:55.799Z,43.87
2023-02-06T23:54:25.046Z,34.13
2023-02-06T23:56:54.477Z,37.78
2023-02-06T23:59:23.732Z,35.50
